Time;durP1;ratioP1;P1;durP2;ratioP2;P2;SDS_P1;SDS_P2;PMS_P1;PMS_P2;Temp;Humidity;BMP_temperature;BMP_pressure;BME280_temperature;BME280_humidity;BME280_pressure;Samples;Min_cycle;Max_cycle;Signal;HPM_P1;HPM_P2
2022/05/13 00:02:06;;;;;;;2.20;1.17;;;;;;;;;;4951244;28;20359;-63
2022/05/13 00:04:31;;;;;;;5.38;1.90;;;;;;;;;;4951749;28;20053;-62
2022/05/13 00:06:57;;;;;;;3.28;1.48;;;;;;;;;;4951193;28;20436;-64
2022/05/13 00:09:56;;;;;;;3.83;1.67;;;;;;;;;;4951102;28;20556;-63
2022/05/13 00:12:08;;;;;;;3.97;1.83;;;;;;;;;;4950889;28;20478;-64
2022/05/13 00:14:33;;;;;;;4.47;1.55;;;;;;;;;;4951102;28;20369;-64
2022/05/13 00:16:58;;;;;;;2.05;1.30;;;;;;;;;;4950617;28;20053;-63
2022/05/13 00:19:23;;;;;;;2.53;1.50;;;;;;;;;;4950279;28;20565;-64
2022/05/13 00:21:49;;;;;;;3.83;2.30;;;;;;;;;;4950893;28;20425;-63
2022/05/13 00:24:14;;;;;;;2.92;1.80;;;;;;;;;;4951608;28;20448;-63
2022/05/13 00:26:39;;;;;;;4.35;2.05;;;;;;;;;;4950791;28;20336;-64
2022/05/13 00:29:05;;;;;;;3.45;1.52;;;;;;;;;;4950473;28;20341;-63
2022/05/13 00:31:30;;;;;;;5.20;1.52;;;;;;;;;;4950700;28;20432;-65
2022/05/13 00:33:55;;;;;;;4.72;2.47;;;;;;;;;;4950845;28;20444;-63
2022/05/13 00:36:21;;;;;;;2.72;1.50;;;;;;;;;;4952506;28;20317;-63
2022/05/13 00:38:47;;;;;;;6.93;1.67;;;;;;;;;;4952020;28;20468;-63
2022/05/13 00:41:13;;;;;;;7.45;1.70;;;;;;;;;;4950379;28;20038;-64
2022/05/13 00:43:51;;;;;;;3.67;1.55;;;;;;;;;;4950272;28;20472;-64
2022/05/13 00:46:16;;;;;;;2.25;1.50;;;;;;;;;;4951032;28;20339;-63
2022/05/13 00:48:41;;;;;;;2.50;1.40;;;;;;;;;;4950719;28;20037;-63
2022/05/13 00:51:08;;;;;;;3.05;1.60;;;;;;;;;;4951235;28;20022;-63
2022/05/13 00:53:34;;;;;;;2.63;1.27;;;;;;;;;;4964864;28;20362;-65
2022/05/13 00:55:59;;;;;;;2.78;1.50;;;;;;;;;;4964803;28;20428;-63
2022/05/13 00:58:26;;;;;;;3.95;1.90;;;;;;;;;;4949466;28;20475;-63
2022/05/13 01:00:51;;;;;;;3.38;1.70;;;;;;;;;;4959119;28;20487;-64
2022/05/13 01:03:17;;;;;;;4.28;1.45;;;;;;;;;;4949967;28;20440;-63
2022/05/13 01:05:44;;;;;;;2.72;1.63;;;;;;;;;;4950074;28;20507;-62
2022/05/13 01:08:11;;;;;;;4.07;1.65;;;;;;;;;;4965381;28;20136;-63
2022/05/13 01:10:38;;;;;;;3.92;1.52;;;;;;;;;;4950090;28;20360;-65
2022/05/13 01:13:07;;;;;;;5.40;1.60;;;;;;;;;;4965132;28;20077;-63
2022/05/13 01:15:39;;;;;;;2.45;1.33;;;;;;;;;;4964692;28;20456;-63
2022/05/13 01:18:05;;;;;;;2.70;1.77;;;;;;;;;;4964328;28;20423;-63
2022/05/13 01:20:38;;;;;;;3.70;1.83;;;;;;;;;;4949554;28;20330;-63
2022/05/13 01:23:13;;;;;;;2.22;1.40;;;;;;;;;;4949951;28;20370;-64
2022/05/13 01:25:41;;;;;;;2.42;1.45;;;;;;;;;;4949905;28;20099;-63
2022/05/13 01:28:17;;;;;;;3.83;1.63;;;;;;;;;;4964877;28;20344;-62
2022/05/13 01:30:51;;;;;;;2.47;1.42;;;;;;;;;;4949800;28;20439;-63
2022/05/13 01:33:16;;;;;;;3.15;1.65;;;;;;;;;;4950415;28;20409;-64
2022/05/13 01:35:44;;;;;;;3.03;1.55;;;;;;;;;;4949526;28;20348;-63
2022/05/13 01:38:10;;;;;;;3.80;1.70;;;;;;;;;;4949590;28;20417;-63
2022/05/13 01:40:35;;;;;;;3.72;1.40;;;;;;;;;;4950050;28;20461;-64
2022/05/13 01:43:00;;;;;;;2.65;1.50;;;;;;;;;;4949739;28;20408;-64
2022/05/13 01:45:26;;;;;;;4.22;1.63;;;;;;;;;;4949403;28;20339;-63
2022/05/13 01:47:51;;;;;;;4.70;1.48;;;;;;;;;;4950676;28;20433;-63
2022/05/13 01:50:16;;;;;;;1.92;1.30;;;;;;;;;;4948966;28;20349;-64
2022/05/13 01:52:42;;;;;;;6.25;1.70;;;;;;;;;;4949600;28;20426;-63
2022/05/13 01:55:08;;;;;;;3.38;1.35;;;;;;;;;;4950577;28;20026;-63
2022/05/13 01:57:33;;;;;;;2.97;1.45;;;;;;;;;;4949803;28;20420;-62
2022/05/13 01:59:58;;;;;;;3.22;1.38;;;;;;;;;;4949810;28;20453;-63
2022/05/13 02:02:23;;;;;;;2.20;1.33;;;;;;;;;;4949606;28;20508;-63
2022/05/13 02:04:49;;;;;;;5.47;1.80;;;;;;;;;;4950046;28;20368;-63
2022/05/13 02:07:14;;;;;;;2.40;1.33;;;;;;;;;;4949414;28;20408;-63
2022/05/13 02:09:39;;;;;;;1.73;1.23;;;;;;;;;;4951590;28;20538;-63
2022/05/13 02:12:05;;;;;;;2.92;1.40;;;;;;;;;;4953402;28;20515;-64
2022/05/13 02:14:31;;;;;;;2.22;1.40;;;;;;;;;;4953973;28;20419;-63
2022/05/13 02:16:56;;;;;;;7.07;1.95;;;;;;;;;;4952279;28;20378;-63
2022/05/13 02:19:21;;;;;;;2.88;1.30;;;;;;;;;;4952411;28;20468;-64
2022/05/13 02:21:47;;;;;;;2.22;1.20;;;;;;;;;;4952427;28;20495;-64
2022/05/13 02:24:12;;;;;;;4.40;1.30;;;;;;;;;;4952821;28;20034;-63
2022/05/13 02:26:37;;;;;;;4.85;1.33;;;;;;;;;;4953416;28;20488;-63
2022/05/13 02:29:02;;;;;;;2.83;1.50;;;;;;;;;;4953110;28;20507;-63
2022/05/13 02:31:29;;;;;;;2.55;1.33;;;;;;;;;;4953239;28;20025;-63
2022/05/13 02:33:55;;;;;;;4.78;1.45;;;;;;;;;;4952614;28;20401;-64
2022/05/13 02:36:20;;;;;;;4.90;1.42;;;;;;;;;;4952427;28;20332;-63
2022/05/13 02:38:46;;;;;;;2.70;1.30;;;;;;;;;;4952574;28;20413;-64
2022/05/13 02:41:11;;;;;;;4.00;1.40;;;;;;;;;;4952594;28;20476;-64
2022/05/13 02:43:58;;;;;;;3.00;1.17;;;;;;;;;;4952986;28;20543;-63
2022/05/13 02:46:26;;;;;;;4.78;2.17;;;;;;;;;;4953281;28;20460;-64
2022/05/13 02:48:52;;;;;;;3.00;1.50;;;;;;;;;;4952032;28;20456;-62
2022/05/13 02:51:17;;;;;;;2.28;1.27;;;;;;;;;;4952500;28;20470;-63
2022/05/13 02:53:43;;;;;;;2.17;1.40;;;;;;;;;;4952888;28;20443;-64
2022/05/13 02:56:08;;;;;;;4.47;1.42;;;;;;;;;;4953230;28;20378;-63
2022/05/13 02:58:38;;;;;;;1.92;1.30;;;;;;;;;;4952834;28;20341;-65
2022/05/13 03:01:05;;;;;;;2.78;1.60;;;;;;;;;;4952079;28;20401;-64
2022/05/13 03:03:30;;;;;;;2.58;1.30;;;;;;;;;;4952990;28;20035;-63
2022/05/13 03:05:56;;;;;;;3.00;1.30;;;;;;;;;;4952334;28;20416;-64
2022/05/13 03:08:22;;;;;;;2.70;1.20;;;;;;;;;;4953141;28;20145;-63
2022/05/13 03:10:47;;;;;;;1.38;1.08;;;;;;;;;;4951718;28;20464;-64
2022/05/13 03:13:13;;;;;;;2.80;1.35;;;;;;;;;;4953505;28;20342;-63
2022/05/13 03:15:39;;;;;;;4.53;1.52;;;;;;;;;;4952070;28;20433;-64
2022/05/13 03:18:04;;;;;;;2.30;1.05;;;;;;;;;;4951625;28;20478;-63
2022/05/13 03:20:30;;;;;;;2.35;1.30;;;;;;;;;;4951622;28;20435;-64
2022/05/13 03:22:55;;;;;;;3.65;1.13;;;;;;;;;;4951669;28;20464;-63
2022/05/13 03:25:21;;;;;;;4.75;1.25;;;;;;;;;;4952328;28;20439;-62
2022/05/13 03:27:46;;;;;;;3.95;1.45;;;;;;;;;;4951796;28;20029;-63
2022/05/13 03:30:15;;;;;;;3.03;1.10;;;;;;;;;;4951454;28;20053;-63
2022/05/13 03:32:41;;;;;;;6.47;1.50;;;;;;;;;;4952004;28;20026;-65
2022/05/13 03:35:08;;;;;;;2.35;1.15;;;;;;;;;;4951476;28;20034;-64
2022/05/13 03:37:34;;;;;;;4.35;1.50;;;;;;;;;;4952654;28;20444;-63
2022/05/13 03:39:59;;;;;;;1.77;1.02;;;;;;;;;;4951378;28;20316;-64
2022/05/13 03:42:25;;;;;;;4.25;1.58;;;;;;;;;;4951273;28;20395;-64
2022/05/13 03:44:50;;;;;;;3.45;1.40;;;;;;;;;;4952937;28;20445;-64
2022/05/13 03:47:16;;;;;;;2.65;1.27;;;;;;;;;;4951317;28;20441;-63
2022/05/13 03:49:42;;;;;;;1.92;1.30;;;;;;;;;;4952458;28;20460;-65
2022/05/13 03:52:08;;;;;;;1.88;1.08;;;;;;;;;;4951718;28;20490;-63
2022/05/13 03:54:34;;;;;;;2.35;1.17;;;;;;;;;;4952246;28;20391;-64
2022/05/13 03:56:59;;;;;;;3.85;1.30;;;;;;;;;;4951344;28;20445;-62
2022/05/13 03:59:24;;;;;;;1.63;1.08;;;;;;;;;;4950973;28;20512;-64
2022/05/13 04:01:50;;;;;;;1.95;1.02;;;;;;;;;;4950786;28;20411;-63
2022/05/13 04:04:20;;;;;;;2.03;1.30;;;;;;;;;;4952314;28;20515;-63
2022/05/13 04:09:29;;;;;;;2.03;1.08;;;;;;;;;;4951323;28;20452;-64
2022/05/13 04:17:23;;;;;;;3.30;1.25;;;;;;;;;;4951638;28;20056;-62
2022/05/13 04:19:48;;;;;;;2.15;1.13;;;;;;;;;;4950556;28;20045;-63
2022/05/13 04:22:13;;;;;;;3.50;1.30;;;;;;;;;;4950861;28;20531;-63
2022/05/13 04:24:39;;;;;;;2.17;1.40;;;;;;;;;;4950948;28;20458;-63
2022/05/13 04:27:05;;;;;;;2.13;1.25;;;;;;;;;;4950441;28;20396;-64
2022/05/13 04:29:30;;;;;;;5.68;1.27;;;;;;;;;;4951731;28;20373;-64
2022/05/13 04:31:55;;;;;;;1.33;0.98;;;;;;;;;;4950364;28;20421;-63
2022/05/13 04:34:21;;;;;;;2.72;1.63;;;;;;;;;;4950885;28;20496;-63
2022/05/13 04:36:46;;;;;;;2.40;1.02;;;;;;;;;;4950172;28;20365;-62
2022/05/13 04:39:13;;;;;;;1.95;1.10;;;;;;;;;;4950215;28;20029;-63
2022/05/13 04:44:23;;;;;;;2.03;1.02;;;;;;;;;;4952355;28;20300;-63
2022/05/13 04:46:48;;;;;;;3.13;1.20;;;;;;;;;;4950337;28;20348;-64
2022/05/13 04:49:14;;;;;;;2.28;1.20;;;;;;;;;;4950336;28;20095;-64
2022/05/13 04:51:40;;;;;;;1.77;1.08;;;;;;;;;;4949784;28;20520;-63
2022/05/13 04:54:06;;;;;;;1.95;1.00;;;;;;;;;;4950319;28;20401;-63
2022/05/13 04:56:32;;;;;;;3.05;1.23;;;;;;;;;;4950630;28;20104;-64
2022/05/13 04:58:58;;;;;;;1.77;1.20;;;;;;;;;;4949769;28;20449;-63
2022/05/13 05:01:24;;;;;;;4.03;1.58;;;;;;;;;;4950733;28;20034;-64
2022/05/13 05:03:50;;;;;;;2.85;1.40;;;;;;;;;;4950695;28;20460;-64
2022/05/13 05:06:16;;;;;;;2.08;1.30;;;;;;;;;;4951657;28;20441;-63
2022/05/13 05:08:43;;;;;;;1.95;1.35;;;;;;;;;;4949998;28;20440;-63
2022/05/13 05:11:09;;;;;;;2.13;1.38;;;;;;;;;;4951431;28;20515;-63
2022/05/13 05:13:37;;;;;;;2.72;1.20;;;;;;;;;;4950881;28;20364;-64
2022/05/13 05:16:03;;;;;;;1.73;1.00;;;;;;;;;;4949812;28;20348;-63
2022/05/13 05:18:28;;;;;;;3.08;1.30;;;;;;;;;;4950307;28;20054;-63
2022/05/13 05:20:54;;;;;;;1.92;1.33;;;;;;;;;;4950365;28;20340;-64
2022/05/13 05:23:23;;;;;;;2.22;1.20;;;;;;;;;;4949504;28;20038;-64
2022/05/13 05:25:49;;;;;;;2.70;1.30;;;;;;;;;;4950265;28;20360;-63
2022/05/13 05:28:15;;;;;;;2.47;1.20;;;;;;;;;;4949739;28;20583;-63
2022/05/13 05:30:42;;;;;;;2.40;1.05;;;;;;;;;;4949733;28;20484;-63
2022/05/13 05:33:08;;;;;;;1.65;1.10;;;;;;;;;;4950039;28;20437;-64
2022/05/13 05:35:33;;;;;;;2.45;1.08;;;;;;;;;;4951141;28;20409;-64
2022/05/13 05:37:59;;;;;;;2.55;1.50;;;;;;;;;;4949592;28;20417;-64
2022/05/13 05:40:24;;;;;;;2.08;1.20;;;;;;;;;;4949912;28;20364;-64
2022/05/13 05:42:50;;;;;;;1.15;1.00;;;;;;;;;;4951467;28;20324;-64
2022/05/13 05:45:17;;;;;;;1.10;0.98;;;;;;;;;;4952737;28;20379;-64
2022/05/13 05:47:43;;;;;;;1.23;0.90;;;;;;;;;;4953771;28;20465;-63
2022/05/13 05:50:12;;;;;;;2.50;1.30;;;;;;;;;;4952697;28;20488;-63
2022/05/13 05:52:37;;;;;;;;;;;;;;;;;;4968741;28;20479;-63
2022/05/13 05:58:14;;;;;;;1.50;0.82;;;;;;;;;;4953452;28;20335;-63
2022/05/13 06:00:43;;;;;;;4.30;1.25;;;;;;;;;;4951611;28;20470;-63
2022/05/13 06:03:08;;;;;;;1.95;1.02;;;;;;;;;;4952948;28;20487;-63
2022/05/13 06:05:34;;;;;;;3.03;1.15;;;;;;;;;;4953362;28;20452;-63
2022/05/13 06:08:01;;;;;;;4.68;0.98;;;;;;;;;;4953251;28;20393;-63
2022/05/13 06:10:28;;;;;;;2.00;1.05;;;;;;;;;;4953565;28;20435;-63
2022/05/13 06:12:54;;;;;;;1.77;1.10;;;;;;;;;;4953952;28;20479;-63
2022/05/13 06:15:20;;;;;;;1.70;1.08;;;;;;;;;;4953825;28;20435;-64
2022/05/13 06:17:48;;;;;;;1.92;1.10;;;;;;;;;;4953017;28;20033;-64
2022/05/13 06:20:14;;;;;;;3.03;1.10;;;;;;;;;;4953486;28;20360;-63
2022/05/13 06:22:40;;;;;;;1.88;0.98;;;;;;;;;;4952678;28;20436;-63
2022/05/13 06:25:07;;;;;;;2.88;1.42;;;;;;;;;;4952981;28;20417;-63
2022/05/13 06:27:33;;;;;;;0.88;0.80;;;;;;;;;;4952806;28;20389;-63
2022/05/13 06:29:58;;;;;;;1.88;0.90;;;;;;;;;;4952746;28;20424;-64
2022/05/13 06:32:23;;;;;;;2.47;1.00;;;;;;;;;;4952685;28;20042;-64
2022/05/13 06:34:49;;;;;;;2.17;1.00;;;;;;;;;;4953329;28;20325;-63
2022/05/13 06:37:14;;;;;;;2.63;1.33;;;;;;;;;;4954369;28;20425;-63
2022/05/13 06:39:39;;;;;;;1.00;0.68;;;;;;;;;;4952875;28;20030;-64
2022/05/13 06:42:05;;;;;;;1.27;0.80;;;;;;;;;;4952512;28;20408;-63
2022/05/13 06:44:30;;;;;;;2.50;1.02;;;;;;;;;;4953029;28;20029;-63
2022/05/13 06:46:56;;;;;;;1.77;0.88;;;;;;;;;;4952575;28;20352;-63
2022/05/13 06:49:21;;;;;;;1.58;0.82;;;;;;;;;;4952224;28;20452;-63
2022/05/13 06:51:46;;;;;;;1.58;1.00;;;;;;;;;;4952559;28;20520;-63
2022/05/13 06:54:12;;;;;;;3.35;1.40;;;;;;;;;;4952540;28;20418;-63
2022/05/13 06:56:39;;;;;;;3.13;0.98;;;;;;;;;;4951216;28;20377;-63
2022/05/13 06:59:05;;;;;;;3.08;1.00;;;;;;;;;;4952690;28;20357;-63
2022/05/13 07:01:30;;;;;;;1.20;1.02;;;;;;;;;;4952706;28;20312;-64
2022/05/13 07:03:56;;;;;;;1.83;0.93;;;;;;;;;;4952538;28;20456;-64
2022/05/13 07:06:21;;;;;;;1.88;0.90;;;;;;;;;;4950688;28;20372;-63
2022/05/13 07:08:49;;;;;;;3.90;0.80;;;;;;;;;;4952341;28;20464;-63
2022/05/13 07:11:14;;;;;;;1.25;0.70;;;;;;;;;;4952651;28;20356;-64
2022/05/13 07:13:40;;;;;;;1.27;0.90;;;;;;;;;;4951905;28;20377;-63
2022/05/13 07:16:05;;;;;;;2.22;0.95;;;;;;;;;;4951824;28;20452;-63
2022/05/13 07:18:30;;;;;;;2.47;1.45;;;;;;;;;;4951544;28;20050;-62
2022/05/13 07:20:56;;;;;;;1.60;1.10;;;;;;;;;;4951842;28;20393;-63
2022/05/13 07:23:21;;;;;;;1.85;0.80;;;;;;;;;;4951718;28;20092;-63
2022/05/13 07:25:47;;;;;;;2.42;1.17;;;;;;;;;;4951603;28;20048;-63
2022/05/13 07:28:12;;;;;;;1.42;0.85;;;;;;;;;;4951738;28;20616;-63
2022/05/13 07:30:37;;;;;;;2.40;1.00;;;;;;;;;;4951619;28;20412;-63
2022/05/13 07:33:04;;;;;;;2.60;0.90;;;;;;;;;;4951758;28;20188;-63
2022/05/13 07:35:29;;;;;;;2.33;0.90;;;;;;;;;;4951380;28;20433;-64
2022/05/13 07:37:55;;;;;;;3.28;1.10;;;;;;;;;;4953369;28;20424;-64
2022/05/13 07:43:04;;;;;;;1.58;1.00;;;;;;;;;;4951873;28;20515;-64
2022/05/13 07:45:30;;;;;;;1.27;0.90;;;;;;;;;;4952587;28;20425;-63
2022/05/13 07:47:55;;;;;;;1.90;0.80;;;;;;;;;;4951489;28;20340;-65
2022/05/13 07:50:21;;;;;;;1.77;0.82;;;;;;;;;;4950955;28;20418;-63
2022/05/13 07:52:46;;;;;;;3.80;0.90;;;;;;;;;;4951551;28;20433;-63
2022/05/13 07:55:15;;;;;;;1.88;0.77;;;;;;;;;;4951674;28;20338;-64
2022/05/13 07:57:41;;;;;;;1.60;0.90;;;;;;;;;;4951531;28;20310;-64
2022/05/13 08:00:26;;;;;;;1.10;0.80;;;;;;;;;;4951310;28;20435;-63
2022/05/13 08:03:08;;;;;;;0.80;0.70;;;;;;;;;;4952414;28;20034;-63
2022/05/13 08:05:38;;;;;;;1.58;1.00;;;;;;;;;;4951134;28;20464;-63
2022/05/13 08:08:09;;;;;;;2.00;0.88;;;;;;;;;;4933316;28;20121;-64
2022/05/13 08:10:36;;;;;;;1.00;0.88;;;;;;;;;;4950732;28;20611;-63
2022/05/13 08:13:02;;;;;;;0.88;0.70;;;;;;;;;;4950968;28;20484;-63
2022/05/13 08:15:28;;;;;;;1.80;0.77;;;;;;;;;;4950286;28;20045;-63
2022/05/13 08:17:53;;;;;;;3.25;0.88;;;;;;;;;;4950897;28;20472;-64
2022/05/13 08:20:20;;;;;;;1.63;0.90;;;;;;;;;;4965245;28;20070;-63
2022/05/13 08:22:45;;;;;;;1.60;0.85;;;;;;;;;;4933404;28;20376;-63
2022/05/13 08:25:11;;;;;;;1.38;1.05;;;;;;;;;;4951301;28;20327;-64
2022/05/13 08:27:36;;;;;;;2.10;0.73;;;;;;;;;;4951304;28;20080;-64
2022/05/13 08:30:03;;;;;;;5.28;1.00;;;;;;;;;;4951395;28;20117;-63
2022/05/13 08:32:29;;;;;;;0.77;0.63;;;;;;;;;;4950733;28;20578;-63
2022/05/13 08:34:54;;;;;;;0.88;0.75;;;;;;;;;;4950260;28;20104;-63
2022/05/13 08:37:20;;;;;;;0.98;0.60;;;;;;;;;;4950443;28;20033;-63
2022/05/13 08:39:45;;;;;;;1.58;0.60;;;;;;;;;;4950737;28;20404;-64
2022/05/13 08:42:35;;;;;;;1.60;1.10;;;;;;;;;;4950349;28;20424;-63
2022/05/13 08:45:00;;;;;;;1.10;1.00;;;;;;;;;;4950058;28;20400;-64
2022/05/13 08:47:35;;;;;;;2.63;1.08;;;;;;;;;;4950118;28;20395;-64
2022/05/13 08:50:05;;;;;;;1.05;0.65;;;;;;;;;;4965488;28;20357;-64
2022/05/13 08:53:09;;;;;;;1.45;0.93;;;;;;;;;;4950073;28;20108;-63
2022/05/13 08:55:39;;;;;;;2.08;1.02;;;;;;;;;;4950801;28;20318;-63
2022/05/13 08:58:08;;;;;;;1.85;0.98;;;;;;;;;;4964839;28;20548;-63
2022/05/13 09:00:46;;;;;;;1.60;0.85;;;;;;;;;;4964614;28;20421;-63
2022/05/13 09:03:36;;;;;;;1.15;0.90;;;;;;;;;;4965468;28;20443;-63
2022/05/13 09:06:21;;;;;;;2.03;0.90;;;;;;;;;;4939352;28;20085;-63
2022/05/13 09:08:46;;;;;;;1.23;0.77;;;;;;;;;;4964576;28;20441;-64
2022/05/13 09:11:21;;;;;;;1.55;0.90;;;;;;;;;;4949832;28;20441;-63
2022/05/13 09:14:22;;;;;;;1.90;0.90;;;;;;;;;;4965416;28;20407;-62
2022/05/13 09:17:10;;;;;;;1.17;0.68;;;;;;;;;;4950673;28;20449;-63
2022/05/13 09:19:38;;;;;;;1.40;0.70;;;;;;;;;;4942473;28;20372;-63
2022/05/13 09:22:07;;;;;;;3.22;0.98;;;;;;;;;;4964886;28;20388;-62
2022/05/13 09:24:33;;;;;;;0.85;0.68;;;;;;;;;;4965148;28;20037;-63
2022/05/13 09:26:58;;;;;;;0.82;0.70;;;;;;;;;;4950286;28;20026;-62
2022/05/13 09:29:23;;;;;;;1.48;0.90;;;;;;;;;;4950181;28;20433;-63
2022/05/13 09:31:59;;;;;;;0.70;0.68;;;;;;;;;;4949348;28;20504;-63
2022/05/13 09:34:24;;;;;;;2.47;1.20;;;;;;;;;;4950093;28;20317;-65
2022/05/13 09:36:50;;;;;;;1.35;0.50;;;;;;;;;;4951273;28;20333;-63
2022/05/13 09:39:17;;;;;;;0.98;0.70;;;;;;;;;;4950196;28;20326;-63
2022/05/13 09:41:42;;;;;;;1.10;0.70;;;;;;;;;;4949462;28;20349;-63
2022/05/13 09:44:25;;;;;;;0.98;0.80;;;;;;;;;;4950588;28;20364;-63
2022/05/13 09:46:53;;;;;;;1.70;0.90;;;;;;;;;;4950088;28;20353;-62
2022/05/13 09:49:33;;;;;;;1.27;0.80;;;;;;;;;;4932074;28;20451;-63
2022/05/13 09:52:10;;;;;;;0.93;0.70;;;;;;;;;;4949557;28;20368;-63
2022/05/13 09:54:37;;;;;;;1.35;0.85;;;;;;;;;;4950110;28;20379;-63
2022/05/13 09:57:20;;;;;;;1.77;0.90;;;;;;;;;;4950753;28;20416;-63
2022/05/13 09:59:55;;;;;;;1.08;0.70;;;;;;;;;;4949550;28;20470;-63
2022/05/13 10:02:20;;;;;;;0.75;0.70;;;;;;;;;;4949215;28;20467;-63
2022/05/13 10:05:10;;;;;;;1.50;0.70;;;;;;;;;;4949520;28;20449;-62
2022/05/13 10:07:54;;;;;;;2.25;1.00;;;;;;;;;;4949747;28;20029;-62
2022/05/13 10:16:00;;;;;;;0.75;0.50;;;;;;;;;;4949123;28;20428;-64
2022/05/13 10:18:27;;;;;;;0.93;0.80;;;;;;;;;;4950080;28;20341;-63
2022/05/13 10:20:54;;;;;;;1.15;0.70;;;;;;;;;;4949560;28;20451;-64
2022/05/13 10:23:28;;;;;;;1.35;0.85;;;;;;;;;;4963812;28;20430;-65
2022/05/13 10:26:01;;;;;;;1.25;0.60;;;;;;;;;;4950654;28;20034;-62
2022/05/13 10:28:31;;;;;;;2.55;0.70;;;;;;;;;;4963851;28;20455;-63
2022/05/13 10:31:02;;;;;;;1.02;0.70;;;;;;;;;;4964201;28;20100;-63
2022/05/13 10:34:12;;;;;;;0.70;0.50;;;;;;;;;;4967811;28;20500;-63
2022/05/13 10:36:44;;;;;;;0.70;0.60;;;;;;;;;;4911380;28;20034;-62
2022/05/13 10:39:22;;;;;;;1.00;0.55;;;;;;;;;;4911543;28;20353;-62
2022/05/13 10:41:52;;;;;;;1.50;0.73;;;;;;;;;;4936582;28;20038;-63
2022/05/13 10:44:21;;;;;;;1.42;0.80;;;;;;;;;;4952839;28;20033;-63
2022/05/13 10:46:51;;;;;;;0.93;0.60;;;;;;;;;;4953787;28;20313;-63
2022/05/13 10:49:16;;;;;;;1.48;0.68;;;;;;;;;;4934874;28;20436;-64
2022/05/13 10:51:53;;;;;;;0.60;0.50;;;;;;;;;;4952625;28;20338;-63
2022/05/13 10:54:26;;;;;;;1.52;0.70;;;;;;;;;;4952063;28;20345;-63
2022/05/13 10:57:12;;;;;;;1.25;0.68;;;;;;;;;;4967005;28;20080;-63
2022/05/13 10:59:42;;;;;;;0.93;0.57;;;;;;;;;;4966642;28;20456;-63
2022/05/13 11:02:10;;;;;;;1.02;0.60;;;;;;;;;;4952497;28;20540;-63
2022/05/13 11:04:52;;;;;;;1.73;0.73;;;;;;;;;;4951987;28;20498;-63
2022/05/13 11:07:44;;;;;;;1.90;0.70;;;;;;;;;;4951874;28;20397;-63
2022/05/13 11:10:41;;;;;;;1.83;0.80;;;;;;;;;;4952083;28;20352;-63
2022/05/13 11:13:38;;;;;;;3.03;1.55;;;;;;;;;;4952273;28;20348;-64
2022/05/13 11:16:13;;;;;;;1.83;0.85;;;;;;;;;;4952229;28;20436;-63
2022/05/13 11:19:04;;;;;;;1.70;0.63;;;;;;;;;;4966471;28;20530;-63
2022/05/13 11:21:39;;;;;;;1.20;0.60;;;;;;;;;;4952519;28;20060;-63
2022/05/13 11:27:32;;;;;;;1.10;0.70;;;;;;;;;;4951813;28;20508;-64
2022/05/13 11:30:07;;;;;;;3.75;0.60;;;;;;;;;;4952960;28;20444;-63
2022/05/13 11:32:42;;;;;;;0.95;0.70;;;;;;;;;;4966641;28;20448;-64
2022/05/13 11:35:27;;;;;;;1.70;0.75;;;;;;;;;;4951292;28;20515;-64
2022/05/13 11:37:58;;;;;;;1.55;0.70;;;;;;;;;;4966877;28;20423;-64
2022/05/13 11:40:46;;;;;;;1.50;0.60;;;;;;;;;;4934370;28;20421;-63
2022/05/13 11:43:45;;;;;;;2.33;0.52;;;;;;;;;;4966206;28;20437;-64
2022/05/13 11:46:20;;;;;;;1.20;0.70;;;;;;;;;;4951882;28;20376;-63
2022/05/13 11:48:52;;;;;;;3.33;0.90;;;;;;;;;;4966587;28;20515;-63
2022/05/13 11:51:28;;;;;;;2.65;0.80;;;;;;;;;;4966626;28;20330;-63
2022/05/13 11:54:14;;;;;;;2.00;0.80;;;;;;;;;;4965713;28;20356;-63
2022/05/13 11:56:43;;;;;;;1.70;0.80;;;;;;;;;;4951332;28;20538;-62
2022/05/13 11:59:11;;;;;;;1.15;1.00;;;;;;;;;;4952803;28;20348;-64
2022/05/13 12:01:39;;;;;;;0.98;0.80;;;;;;;;;;4965831;28;20493;-63
2022/05/13 12:04:13;;;;;;;1.40;0.77;;;;;;;;;;4951489;28;20459;-63
2022/05/13 12:06:51;;;;;;;5.18;0.80;;;;;;;;;;4951040;28;20345;-64
2022/05/13 12:09:21;;;;;;;0.80;0.60;;;;;;;;;;4951129;28;20044;-63
2022/05/13 12:12:25;;;;;;;6.00;1.90;;;;;;;;;;4951320;28;20448;-62
2022/05/13 12:14:59;;;;;;;1.35;0.75;;;;;;;;;;4950591;28;20523;-62
2022/05/13 12:17:41;;;;;;;3.00;1.10;;;;;;;;;;4951754;28;20353;-63
2022/05/13 12:20:10;;;;;;;2.53;0.90;;;;;;;;;;4950471;28;20104;-62
2022/05/13 12:22:41;;;;;;;1.25;0.70;;;;;;;;;;4950840;28;20034;-63
2022/05/13 12:25:10;;;;;;;2.15;1.05;;;;;;;;;;4965413;28;20376;-62
2022/05/13 12:27:44;;;;;;;4.57;1.40;;;;;;;;;;4950503;28;20449;-63
2022/05/13 12:30:11;;;;;;;1.05;0.60;;;;;;;;;;4950613;28;20360;-63
2022/05/13 12:32:40;;;;;;;0.95;0.70;;;;;;;;;;4950126;28;20459;-65
2022/05/13 12:38:06;;;;;;;2.35;1.00;;;;;;;;;;4952492;28;20519;-62
2022/05/13 12:40:35;;;;;;;2.35;1.00;;;;;;;;;;4950049;28;20376;-64
2022/05/13 12:43:32;;;;;;;1.65;0.95;;;;;;;;;;4950693;28;20491;-63
2022/05/13 12:46:21;;;;;;;1.15;0.85;;;;;;;;;;4933402;28;20441;-63
2022/05/13 12:49:01;;;;;;;1.30;0.70;;;;;;;;;;4946185;28;20341;-63
2022/05/13 12:51:35;;;;;;;1.52;0.70;;;;;;;;;;4950802;28;20435;-63
2022/05/13 12:54:01;;;;;;;0.82;0.65;;;;;;;;;;4949688;28;20464;-63
2022/05/13 12:56:38;;;;;;;1.58;1.10;;;;;;;;;;4951325;28;20503;-64
2022/05/13 12:59:11;;;;;;;1.55;0.80;;;;;;;;;;4964939;28;20508;-63
2022/05/13 13:01:39;;;;;;;1.38;0.88;;;;;;;;;;4950479;28;20029;-63
2022/05/13 13:04:06;;;;;;;0.57;0.50;;;;;;;;;;4965279;28;20436;-63
2022/05/13 13:06:39;;;;;;;1.58;1.13;;;;;;;;;;4964687;28;20030;-62
2022/05/13 13:09:04;;;;;;;1.45;0.80;;;;;;;;;;4949886;28;20404;-63
2022/05/13 13:11:35;;;;;;;1.02;0.68;;;;;;;;;;4950567;28;20117;-63
2022/05/13 13:14:17;;;;;;;1.20;0.80;;;;;;;;;;4949943;28;20542;-64
2022/05/13 13:16:55;;;;;;;1.30;0.93;;;;;;;;;;4964632;28;20428;-63
2022/05/13 13:19:25;;;;;;;3.13;1.15;;;;;;;;;;4949804;28;20453;-62
2022/05/13 13:22:08;;;;;;;2.10;1.02;;;;;;;;;;4949854;28;20441;-62
2022/05/13 13:24:36;;;;;;;3.45;0.82;;;;;;;;;;4950910;28;20344;-63
2022/05/13 13:27:04;;;;;;;2.03;0.73;;;;;;;;;;4950486;28;20445;-62
2022/05/13 13:29:35;;;;;;;1.73;1.05;;;;;;;;;;4965184;28;20034;-63
2022/05/13 13:32:04;;;;;;;1.00;0.80;;;;;;;;;;4964729;28;20120;-62
2022/05/13 13:34:36;;;;;;;2.60;0.68;;;;;;;;;;4950941;28;20441;-62
2022/05/13 13:37:04;;;;;;;2.47;1.25;;;;;;;;;;4950066;28;20337;-63
2022/05/13 13:39:30;;;;;;;1.67;0.80;;;;;;;;;;4949351;28;20484;-62
2022/05/13 13:42:00;;;;;;;1.05;0.70;;;;;;;;;;4950986;28;20326;-63
2022/05/13 13:44:25;;;;;;;3.83;1.15;;;;;;;;;;4949664;28;20331;-62
2022/05/13 13:46:51;;;;;;;2.70;0.82;;;;;;;;;;4949488;28;20397;-62
2022/05/13 13:49:21;;;;;;;1.40;0.90;;;;;;;;;;4964599;28;20376;-63
2022/05/13 13:51:50;;;;;;;1.42;0.73;;;;;;;;;;4950401;28;20341;-62
2022/05/13 13:54:20;;;;;;;1.55;0.80;;;;;;;;;;4964992;28;20424;-62
2022/05/13 13:57:12;;;;;;;0.73;0.68;;;;;;;;;;4964452;28;20463;-63
2022/05/13 14:00:09;;;;;;;2.15;0.90;;;;;;;;;;4930189;28;20411;-62
2022/05/13 14:02:39;;;;;;;3.00;1.60;;;;;;;;;;4937630;28;20368;-63
2022/05/13 14:05:08;;;;;;;2.10;0.93;;;;;;;;;;4964483;28;20444;-62
2022/05/13 14:07:34;;;;;;;2.80;0.70;;;;;;;;;;4969323;28;20360;-62
2022/05/13 14:09:59;;;;;;;1.73;1.05;;;;;;;;;;4953300;28;20396;-62
2022/05/13 14:12:26;;;;;;;4.30;1.10;;;;;;;;;;4953025;28;20034;-62
2022/05/13 14:14:54;;;;;;;5.90;0.80;;;;;;;;;;4967873;28;20368;-62
2022/05/13 14:17:25;;;;;;;1.75;0.93;;;;;;;;;;4968538;28;20385;-63
2022/05/13 14:20:15;;;;;;;4.85;0.98;;;;;;;;;;4967148;28;20603;-62
2022/05/13 14:23:10;;;;;;;2.33;1.02;;;;;;;;;;4953451;28;20053;-63
2022/05/13 14:25:49;;;;;;;1.67;0.88;;;;;;;;;;4948380;28;20453;-62
2022/05/13 14:28:16;;;;;;;2.38;0.93;;;;;;;;;;4935574;28;20401;-62
2022/05/13 14:30:46;;;;;;;1.27;0.95;;;;;;;;;;4953866;28;20395;-62
2022/05/13 14:33:12;;;;;;;1.00;0.90;;;;;;;;;;4967680;28;20034;-62
2022/05/13 14:35:37;;;;;;;2.22;0.95;;;;;;;;;;4953129;28;20157;-63
2022/05/13 14:38:04;;;;;;;2.17;1.00;;;;;;;;;;4952418;28;20476;-62
2022/05/13 14:40:41;;;;;;;1.80;1.00;;;;;;;;;;4953055;28;20344;-63
2022/05/13 14:43:17;;;;;;;1.48;1.00;;;;;;;;;;4952338;28;20397;-62
2022/05/13 14:45:44;;;;;;;1.70;1.05;;;;;;;;;;4967570;28;20417;-62
2022/05/13 14:48:23;;;;;;;2.97;0.80;;;;;;;;;;4968283;28;20456;-63
2022/05/13 14:51:02;;;;;;;1.08;0.80;;;;;;;;;;4951744;28;20416;-63
2022/05/13 14:53:31;;;;;;;1.98;1.13;;;;;;;;;;4952475;28;20329;-62
2022/05/13 14:55:58;;;;;;;1.92;0.93;;;;;;;;;;4953210;28;20299;-62
2022/05/13 14:58:27;;;;;;;1.65;0.80;;;;;;;;;;4952324;28;20515;-62
2022/05/13 15:00:56;;;;;;;2.47;1.02;;;;;;;;;;4966789;28;20456;-63
2022/05/13 15:03:27;;;;;;;2.10;1.40;;;;;;;;;;4968049;28;20477;-62
2022/05/13 15:05:53;;;;;;;2.33;1.00;;;;;;;;;;4967683;28;20352;-62
2022/05/13 15:08:34;;;;;;;1.83;0.80;;;;;;;;;;4951901;28;20392;-62
2022/05/13 15:11:00;;;;;;;1.35;0.80;;;;;;;;;;4966860;28;20467;-63
2022/05/13 15:13:26;;;;;;;2.30;1.00;;;;;;;;;;4951865;28;20389;-63
2022/05/13 15:15:52;;;;;;;1.33;0.80;;;;;;;;;;4952232;28;20057;-62
2022/05/13 15:18:17;;;;;;;1.20;0.90;;;;;;;;;;4951289;28;20311;-63
2022/05/13 15:20:44;;;;;;;1.27;0.60;;;;;;;;;;4951744;28;20034;-63
2022/05/13 15:23:09;;;;;;;3.95;1.10;;;;;;;;;;4951855;28;20084;-62
2022/05/13 15:25:41;;;;;;;2.58;1.10;;;;;;;;;;4966558;28;20463;-63
2022/05/13 15:28:06;;;;;;;1.58;0.98;;;;;;;;;;4951599;28;20441;-63